Time;durP1;ratioP1;P1;durP2;ratioP2;P2;SDS_P1;SDS_P2;PMS_P1;PMS_P2;Temp;Humidity;BMP_temperature;BMP_pressure;BME280_temperature;BME280_humidity;BME280_pressure;Samples;Min_cycle;Max_cycle;Signal;HPM_P1;HPM_P2
2021/12/21 00:00:51;;;;;;;1.20;0.73;;;18.90;53.30;;;;;;5125265;28;20061;-41
2021/12/21 00:03:17;;;;;;;0.85;0.65;;;18.90;53.40;;;;;;5125086;28;20100;-40
2021/12/21 00:05:43;;;;;;;0.85;0.77;;;18.90;53.50;;;;;;5125535;28;20027;-45
2021/12/21 00:08:12;;;;;;;1.17;0.70;;;18.80;53.40;;;;;;5117088;28;20039;-41
2021/12/21 00:10:39;;;;;;;2.47;0.80;;;18.80;53.50;;;;;;5108725;28;20027;-41
2021/12/21 00:13:20;;;;;;;1.58;1.00;;;18.80;53.50;;;;;;5122827;28;20066;-41
2021/12/21 00:15:59;;;;;;;2.05;0.95;;;18.80;53.60;;;;;;5124955;28;20042;-41
2021/12/21 00:21:12;;;;;;;1.52;0.90;;;18.70;53.70;;;;;;5125140;28;20027;-41
2021/12/21 00:23:44;;;;;;;1.00;0.90;;;18.70;53.70;;;;;;5124831;28;20039;-41
2021/12/21 00:26:15;;;;;;;1.25;0.80;;;18.60;53.70;;;;;;5124999;28;20083;-40
2021/12/21 00:28:54;;;;;;;0.98;0.77;;;18.60;53.70;;;;;;5124866;28;20050;-42
2021/12/21 00:31:20;;;;;;;0.93;0.70;;;18.60;53.70;;;;;;5124767;27;20032;-41
2021/12/21 00:33:47;;;;;;;1.13;0.98;;;18.60;53.70;;;;;;5124707;28;20039;-41
2021/12/21 00:36:17;;;;;;;1.17;0.75;;;18.60;53.70;;;;;;5124812;28;20028;-41
2021/12/21 00:38:45;;;;;;;1.20;1.00;;;18.50;53.80;;;;;;5110695;28;20110;-40
2021/12/21 00:41:11;;;;;;;1.00;0.80;;;18.50;53.70;;;;;;5112512;28;20035;-41
2021/12/21 00:43:37;;;;;;;2.15;0.90;;;18.50;53.80;;;;;;5124784;28;20031;-40
2021/12/21 00:46:03;;;;;;;0.80;0.70;;;18.50;53.80;;;;;;5124337;28;20023;-41
2021/12/21 00:48:31;;;;;;;0.90;0.80;;;18.40;53.90;;;;;;5123812;28;20469;-40
2021/12/21 00:50:58;;;;;;;0.90;0.80;;;18.40;53.90;;;;;;5124768;27;20035;-41
2021/12/21 00:53:24;;;;;;;0.93;0.80;;;18.40;54.00;;;;;;5124274;28;20031;-40
2021/12/21 00:55:51;;;;;;;1.17;0.77;;;18.40;54.10;;;;;;5124342;28;20031;-41
2021/12/21 00:58:17;;;;;;;1.58;0.80;;;18.30;54.10;;;;;;5123597;28;20027;-44
2021/12/21 01:00:43;;;;;;;1.02;0.90;;;18.30;54.10;;;;;;5124219;28;20035;-40
2021/12/21 01:03:12;;;;;;;1.83;1.10;;;18.30;54.10;;;;;;5123737;28;20087;-40
2021/12/21 01:05:49;;;;;;;1.10;0.90;;;18.30;54.10;;;;;;5124152;28;20027;-40
2021/12/21 01:08:20;;;;;;;1.20;0.90;;;18.20;54.10;;;;;;5114463;28;20036;-41
2021/12/21 01:13:28;;;;;;;2.35;1.00;;;18.20;54.20;;;;;;5124118;28;20024;-42
2021/12/21 01:18:25;;;;;;;1.52;1.05;;;18.20;54.30;;;;;;5123344;28;20485;-41
2021/12/21 01:21:05;;;;;;;1.48;0.93;;;18.20;54.30;;;;;;5123016;28;20039;-41
2021/12/21 01:24:03;;;;;;;1.15;1.05;;;18.10;54.30;;;;;;5123773;28;20105;-40
2021/12/21 01:28:55;;;;;;;2.08;1.10;;;18.10;54.30;;;;;;5123395;28;20126;-43
2021/12/21 01:31:31;;;;;;;1.02;0.90;;;18.00;54.30;;;;;;5123796;28;20028;-40
2021/12/21 01:34:24;;;;;;;1.30;1.10;;;18.00;54.40;;;;;;5123781;28;20083;-40
2021/12/21 01:37:21;;;;;;;1.73;0.90;;;18.00;54.40;;;;;;5123554;28;20016;-40
2021/12/21 01:39:55;;;;;;;2.22;0.90;;;18.00;54.50;;;;;;5102840;28;20036;-42
2021/12/21 01:42:35;;;;;;;1.20;0.90;;;17.90;54.50;;;;;;5121155;28;20060;-41
2021/12/21 01:50:38;;;;;;;1.35;0.88;;;17.90;54.60;;;;;;5114632;28;20528;-43
2021/12/21 01:53:04;;;;;;;1.10;1.00;;;17.80;54.60;;;;;;5123522;28;20031;-41
2021/12/21 01:55:30;;;;;;;1.20;0.90;;;17.80;54.60;;;;;;5123300;28;20057;-41
2021/12/21 01:57:57;;;;;;;1.25;1.02;;;17.80;54.70;;;;;;5122925;28;20568;-42
2021/12/21 02:00:23;;;;;;;0.90;0.80;;;17.80;54.70;;;;;;5123044;28;20110;-41
2021/12/21 02:02:49;;;;;;;1.10;1.00;;;17.80;54.70;;;;;;5123293;28;20027;-41
2021/12/21 02:05:15;;;;;;;1.50;1.08;;;17.80;54.70;;;;;;5122933;28;20031;-41
2021/12/21 02:07:41;;;;;;;1.23;0.98;;;17.70;54.70;;;;;;5118149;28;20392;-40
2021/12/21 02:10:07;;;;;;;1.10;1.00;;;17.70;54.70;;;;;;5102907;28;20027;-40
2021/12/21 02:12:34;;;;;;;1.13;1.02;;;17.70;54.80;;;;;;5122911;28;20024;-40
2021/12/21 02:15:01;;;;;;;1.50;0.90;;;17.70;54.80;;;;;;5123237;28;20056;-40
2021/12/21 02:18:00;;;;;;;1.38;1.08;;;17.60;54.80;;;;;;5122864;28;20118;-41
2021/12/21 02:23:07;;;;;;;2.08;0.70;;;17.60;54.90;;;;;;5122781;28;20059;-40
2021/12/21 02:25:53;;;;;;;1.17;0.90;;;17.60;54.90;;;;;;5122994;28;20039;-42
2021/12/21 02:30:55;;;;;;;1.20;1.00;;;17.60;54.90;;;;;;5123160;28;20095;-43
2021/12/21 02:33:23;;;;;;;0.98;0.65;;;17.50;54.90;;;;;;5122801;28;20024;-44
2021/12/21 02:35:49;;;;;;;1.05;0.80;;;17.50;55.00;;;;;;5122646;28;20108;-42
2021/12/21 02:38:15;;;;;;;3.63;0.90;;;17.50;55.00;;;;;;5116114;28;20024;-42
2021/12/21 02:40:41;;;;;;;1.30;1.00;;;17.50;55.00;;;;;;5114329;28;20465;-40
2021/12/21 02:43:10;;;;;;;1.10;1.00;;;17.40;55.00;;;;;;5123910;28;20015;-40
2021/12/21 02:45:38;;;;;;;1.17;1.00;;;17.50;55.10;;;;;;5123629;28;20060;-41
2021/12/21 02:48:04;;;;;;;1.05;0.93;;;17.60;55.60;;;;;;5123806;28;20765;-40
2021/12/21 02:50:31;;;;;;;1.20;0.98;;;17.60;55.10;;;;;;5123617;28;20031;-40
2021/12/21 02:52:59;;;;;;;1.45;1.00;;;17.60;55.10;;;;;;5123372;28;20031;-41
2021/12/21 02:55:26;;;;;;;1.05;0.95;;;17.50;55.10;;;;;;5118846;28;20038;-43
2021/12/21 02:57:52;;;;;;;0.93;0.80;;;17.50;55.10;;;;;;5119797;28;20058;-41
2021/12/21 03:00:18;;;;;;;0.85;0.75;;;17.50;55.20;;;;;;5119308;28;20073;-40
2021/12/21 03:02:44;;;;;;;1.10;1.00;;;17.40;55.20;;;;;;5120252;28;20062;-43
2021/12/21 03:05:11;;;;;;;0.90;0.80;;;17.40;55.20;;;;;;5120835;28;20024;-40
2021/12/21 03:10:09;;;;;;;1.10;1.00;;;17.30;55.20;;;;;;5120677;28;20051;-40
2021/12/21 03:15:25;;;;;;;1.40;1.00;;;17.40;55.30;;;;;;5126237;28;20037;-41
2021/12/21 03:17:51;;;;;;;1.13;0.80;;;17.50;55.30;;;;;;5126163;28;20045;-41
2021/12/21 03:20:17;;;;;;;0.82;0.80;;;17.50;55.30;;;;;;5125448;28;20039;-41
2021/12/21 03:22:43;;;;;;;1.10;1.00;;;17.50;55.20;;;;;;5126105;28;20039;-44
2021/12/21 03:25:10;;;;;;;1.10;1.00;;;17.40;55.80;;;;;;5126224;28;20055;-40
2021/12/21 03:27:36;;;;;;;1.30;1.10;;;17.40;55.40;;;;;;5125802;28;20074;-40
2021/12/21 03:30:04;;;;;;;1.10;1.00;;;17.30;55.40;;;;;;5125675;28;20073;-41
2021/12/21 03:32:29;;;;;;;;;;;17.30;55.30;;;;;;5126346;28;20031;-41
2021/12/21 03:34:56;;;;;;;1.63;1.20;;;17.30;55.40;;;;;;5125720;28;19908;-42
2021/12/21 03:37:22;;;;;;;1.20;0.90;;;17.40;55.40;;;;;;5124682;28;20031;-41
2021/12/21 03:39:50;;;;;;;0.80;0.80;;;17.40;55.30;;;;;;5125497;28;20019;-40
2021/12/21 03:42:16;;;;;;;1.33;1.00;;;17.50;55.30;;;;;;5125633;27;20103;-40
2021/12/21 03:44:42;;;;;;;1.52;1.00;;;17.50;55.30;;;;;;5125452;28;20027;-41
2021/12/21 03:47:10;;;;;;;2.13;1.00;;;17.40;55.30;;;;;;5125449;28;20050;-40
2021/12/21 03:52:10;;;;;;;1.17;0.90;;;17.30;55.40;;;;;;5125370;28;20028;-42
2021/12/21 03:54:37;;;;;;;1.05;0.95;;;17.30;55.50;;;;;;5125371;28;20031;-40
2021/12/21 03:57:03;;;;;;;1.00;0.90;;;17.30;55.50;;;;;;5123810;28;20028;-41
2021/12/21 03:59:29;;;;;;;0.80;0.77;;;17.40;55.50;;;;;;5124679;28;20033;-40
2021/12/21 04:01:55;;;;;;;1.13;0.90;;;17.50;55.50;;;;;;5125179;28;20107;-40
2021/12/21 04:04:23;;;;;;;0.88;0.73;;;17.50;55.40;;;;;;5125267;28;20054;-40
2021/12/21 04:06:49;;;;;;;1.50;0.90;;;17.50;55.40;;;;;;5125006;28;20035;-40
2021/12/21 04:09:15;;;;;;;1.02;0.82;;;17.40;55.40;;;;;;5124343;28;20047;-41
2021/12/21 04:11:42;;;;;;;1.10;1.00;;;17.40;55.50;;;;;;5125122;28;20526;-42
2021/12/21 04:14:08;;;;;;;0.85;0.80;;;17.30;55.50;;;;;;5124924;28;20035;-41
2021/12/21 04:16:34;;;;;;;1.20;0.93;;;17.30;55.50;;;;;;5125104;28;20083;-40
2021/12/21 04:19:00;;;;;;;1.00;0.90;;;17.40;55.60;;;;;;5124729;28;20058;-41
2021/12/21 04:21:26;;;;;;;1.10;1.00;;;17.40;55.60;;;;;;5156987;27;20594;-40
2021/12/21 04:23:52;;;;;;;1.20;1.02;;;17.50;55.50;;;;;;5124866;28;20077;-41
2021/12/21 04:26:19;;;;;;;1.25;0.80;;;17.50;55.40;;;;;;5124597;27;20032;-41
2021/12/21 04:28:45;;;;;;;1.58;0.77;;;17.40;55.40;;;;;;5124627;28;20029;-44
2021/12/21 04:31:11;;;;;;;1.13;0.83;;;17.40;55.50;;;;;;5124455;28;20035;-42
2021/12/21 04:33:42;;;;;;;0.95;0.80;;;17.30;55.50;;;;;;5124632;28;20032;-43
2021/12/21 04:36:09;;;;;;;2.13;0.90;;;17.30;55.60;;;;;;5124659;27;20027;-41
2021/12/21 04:38:38;;;;;;;0.73;0.73;;;17.40;55.60;;;;;;5112482;28;20039;-41
2021/12/21 04:41:14;;;;;;;0.90;0.70;;;17.40;56.00;;;;;;5103689;28;20043;-41
2021/12/21 04:43:41;;;;;;;0.93;0.82;;;17.50;55.50;;;;;;5122496;28;20022;-40
2021/12/21 04:46:07;;;;;;;1.38;0.88;;;17.50;55.30;;;;;;5124107;28;20028;-41
2021/12/21 04:48:33;;;;;;;1.02;0.77;;;17.50;55.30;;;;;;5124002;27;20047;-40
2021/12/21 04:51:00;;;;;;;1.23;0.80;;;17.40;55.30;;;;;;5123928;28;20042;-40
2021/12/21 04:53:26;;;;;;;1.30;0.82;;;17.40;55.40;;;;;;5123827;28;20091;-40
2021/12/21 04:55:52;;;;;;;0.95;0.82;;;17.30;55.40;;;;;;5124378;28;20043;-40
2021/12/21 04:58:18;;;;;;;1.10;1.00;;;17.40;55.50;;;;;;5123685;28;20045;-41
2021/12/21 05:00:44;;;;;;;1.08;0.80;;;17.40;55.40;;;;;;5123124;28;20032;-40
2021/12/21 05:03:10;;;;;;;1.00;0.77;;;17.50;55.40;;;;;;5123881;28;20027;-43
2021/12/21 05:05:37;;;;;;;0.90;0.85;;;17.50;55.20;;;;;;5123775;28;20499;-40
2021/12/21 05:08:12;;;;;;;0.83;0.80;;;17.50;55.20;;;;;;5116044;28;20054;-40
2021/12/21 05:13:13;;;;;;;0.95;0.70;;;17.40;55.30;;;;;;5117893;28;20023;-43
2021/12/21 05:15:39;;;;;;;0.70;0.70;;;17.30;55.30;;;;;;5123718;28;20024;-40
2021/12/21 05:18:06;;;;;;;0.82;0.80;;;17.30;55.40;;;;;;5123521;28;20024;-40
2021/12/21 05:20:32;;;;;;;1.30;0.80;;;17.40;55.40;;;;;;5122952;28;20055;-40
2021/12/21 05:22:58;;;;;;;1.35;1.08;;;17.50;55.40;;;;;;5123599;28;20204;-40
2021/12/21 05:25:24;;;;;;;1.00;0.68;;;17.50;55.40;;;;;;5123647;28;20026;-40
2021/12/21 05:27:50;;;;;;;1.17;0.98;;;17.50;55.20;;;;;;5123162;28;20027;-41
2021/12/21 05:30:17;;;;;;;1.10;0.80;;;17.40;55.20;;;;;;5123557;28;20020;-42
2021/12/21 05:32:43;;;;;;;0.68;0.63;;;17.40;55.30;;;;;;5123131;28;20028;-41
2021/12/21 05:35:09;;;;;;;1.15;0.75;;;17.30;55.30;;;;;;5122009;28;20040;-40
2021/12/21 05:37:38;;;;;;;0.93;0.80;;;17.30;55.30;;;;;;5119741;28;20043;-40
2021/12/21 05:40:11;;;;;;;1.23;0.85;;;17.40;55.40;;;;;;5102667;28;20336;-41
2021/12/21 05:42:38;;;;;;;0.90;0.85;;;17.50;55.50;;;;;;5112208;28;20035;-40
2021/12/21 05:45:04;;;;;;;1.10;0.65;;;17.50;55.40;;;;;;5111431;28;20050;-42
2021/12/21 05:47:31;;;;;;;0.93;0.70;;;17.50;55.30;;;;;;5102675;28;20032;-40
2021/12/21 05:49:57;;;;;;;1.33;0.77;;;17.50;55.30;;;;;;5109386;28;20075;-41
2021/12/21 05:52:23;;;;;;;0.90;0.80;;;17.40;55.30;;;;;;5122592;28;20055;-40
2021/12/21 05:54:49;;;;;;;1.02;0.80;;;17.40;55.30;;;;;;5122825;27;20043;-40
2021/12/21 05:57:15;;;;;;;0.65;0.65;;;17.30;55.40;;;;;;5122768;28;20038;-40
2021/12/21 05:59:42;;;;;;;0.47;0.43;;;17.40;55.50;;;;;;5122680;27;20027;-40
2021/12/21 06:02:08;;;;;;;0.73;0.73;;;17.50;55.60;;;;;;5122727;28;20046;-41
2021/12/21 06:04:34;;;;;;;0.90;0.70;;;17.50;55.60;;;;;;5122998;28;20024;-42
2021/12/21 06:07:00;;;;;;;1.50;0.80;;;17.50;55.40;;;;;;5122301;28;20036;-40
2021/12/21 06:09:27;;;;;;;1.50;0.82;;;17.50;55.40;;;;;;5102854;28;20593;-41
2021/12/21 06:12:07;;;;;;;1.10;0.70;;;17.50;55.40;;;;;;5101579;28;20035;-40
2021/12/21 06:25:37;;;;;;;0.75;0.70;;;17.50;55.60;;;;;;5102009;28;20031;-41
2021/12/21 06:28:04;;;;;;;0.73;0.60;;;17.50;55.40;;;;;;5102183;28;20050;-42
2021/12/21 06:30:31;;;;;;;0.75;0.68;;;17.50;55.40;;;;;;5102004;28;20024;-41
2021/12/21 06:32:57;;;;;;;0.87;0.70;;;17.40;55.40;;;;;;5102109;28;20024;-42
2021/12/21 06:35:23;;;;;;;1.40;0.88;;;17.40;55.50;;;;;;5101866;28;20050;-42
2021/12/21 06:37:50;;;;;;;0.80;0.70;;;17.40;55.50;;;;;;5106677;28;20040;-40
2021/12/21 06:40:16;;;;;;;1.02;0.60;;;17.40;55.60;;;;;;5122275;28;20028;-44
2021/12/21 06:42:44;;;;;;;1.15;0.80;;;17.50;55.60;;;;;;5122350;28;20070;-41
2021/12/21 06:45:23;;;;;;;0.70;0.60;;;17.50;55.50;;;;;;5122457;28;20035;-42
2021/12/21 06:53:19;;;;;;;0.82;0.70;;;17.50;55.40;;;;;;5122181;28;20034;-40
2021/12/21 06:55:46;;;;;;;1.98;0.65;;;17.40;55.50;;;;;;5121878;28;20024;-40
2021/12/21 06:58:12;;;;;;;0.93;0.70;;;17.40;55.50;;;;;;5122218;28;20389;-42
2021/12/21 07:00:38;;;;;;;0.75;0.60;;;17.40;55.50;;;;;;5121390;28;20016;-41
2021/12/21 07:03:04;;;;;;;0.97;0.50;;;17.50;55.60;;;;;;5122086;28;20035;-41
2021/12/21 07:05:31;;;;;;;0.93;0.65;;;17.50;55.50;;;;;;5121764;28;20072;-43
2021/12/21 07:07:57;;;;;;;0.80;0.70;;;17.50;55.50;;;;;;5114887;28;20540;-41
2021/12/21 07:10:27;;;;;;;0.60;0.52;;;17.50;55.30;;;;;;5101607;28;20028;-40
2021/12/21 07:18:29;;;;;;;0.65;0.65;;;17.30;55.40;;;;;;5101689;28;20039;-40
2021/12/21 07:20:59;;;;;;;0.93;0.70;;;17.40;55.50;;;;;;5116662;28;20059;-42
2021/12/21 07:23:25;;;;;;;0.65;0.50;;;17.40;55.50;;;;;;5123706;28;20053;-41
2021/12/21 07:25:51;;;;;;;0.90;0.60;;;17.50;55.50;;;;;;5125538;28;20027;-40
2021/12/21 07:28:18;;;;;;;0.93;0.63;;;17.50;55.40;;;;;;5125748;28;20124;-41
2021/12/21 07:30:47;;;;;;;0.60;0.60;;;17.60;55.30;;;;;;5125711;28;20023;-40
2021/12/21 07:33:14;;;;;;;0.95;0.60;;;17.50;55.20;;;;;;5125425;28;20024;-41
2021/12/21 07:35:40;;;;;;;0.60;0.60;;;17.50;55.20;;;;;;5125713;28;20091;-41
2021/12/21 07:38:06;;;;;;;0.63;0.60;;;17.40;55.30;;;;;;5116831;28;20082;-40
2021/12/21 07:40:33;;;;;;;0.95;0.80;;;17.40;55.30;;;;;;5104806;28;20117;-42
2021/12/21 07:43:00;;;;;;;0.95;0.60;;;17.40;55.40;;;;;;5117740;28;20039;-40
2021/12/21 07:45:27;;;;;;;0.73;0.70;;;17.50;55.30;;;;;;5125234;28;20035;-41
2021/12/21 07:47:53;;;;;;;0.65;0.50;;;17.60;55.30;;;;;;5125011;28;20019;-41
2021/12/21 07:50:20;;;;;;;0.63;0.53;;;17.50;55.20;;;;;;5125049;28;20032;-41
2021/12/21 07:52:47;;;;;;;1.13;0.70;;;17.50;55.10;;;;;;5125436;28;20030;-42
2021/12/21 07:55:13;;;;;;;0.70;0.43;;;17.50;55.20;;;;;;5125587;28;20031;-42
2021/12/21 07:57:39;;;;;;;0.60;0.50;;;17.40;55.20;;;;;;5124819;28;20027;-41
2021/12/21 08:00:07;;;;;;;1.13;0.70;;;17.40;55.20;;;;;;5124813;28;20028;-40
2021/12/21 08:02:33;;;;;;;0.85;0.60;;;17.40;55.30;;;;;;5124726;28;20796;-40
2021/12/21 08:05:04;;;;;;;1.60;0.80;;;17.50;55.30;;;;;;5124946;28;20032;-40
2021/12/21 08:07:34;;;;;;;0.50;0.50;;;17.50;55.10;;;;;;5121668;27;20119;-40
2021/12/21 08:10:16;;;;;;;0.77;0.50;;;17.60;55.10;;;;;;5104284;28;20062;-40
2021/12/21 08:12:43;;;;;;;0.68;0.50;;;17.50;54.80;;;;;;5114684;28;20032;-40
2021/12/21 08:15:09;;;;;;;0.68;0.68;;;17.50;54.90;;;;;;5124728;28;20027;-40
2021/12/21 08:17:35;;;;;;;0.50;0.50;;;17.50;55.00;;;;;;5124583;28;20122;-40
2021/12/21 08:20:01;;;;;;;0.60;0.55;;;17.40;55.00;;;;;;5117311;28;20077;-40
2021/12/21 08:22:28;;;;;;;0.45;0.40;;;17.40;55.20;;;;;;5104270;28;20707;-43
2021/12/21 08:24:54;;;;;;;0.68;0.47;;;17.40;55.20;;;;;;5104388;28;20020;-40
2021/12/21 08:27:20;;;;;;;0.60;0.50;;;17.50;55.30;;;;;;5104147;28;20055;-42
2021/12/21 08:29:46;;;;;;;0.50;0.50;;;17.60;55.30;;;;;;5103962;28;20085;-40
2021/12/21 08:32:12;;;;;;;0.75;0.57;;;17.50;55.20;;;;;;5103980;28;20032;-40
2021/12/21 08:34:39;;;;;;;0.80;0.50;;;17.50;55.60;;;;;;5103164;28;20354;-41
2021/12/21 08:37:05;;;;;;;1.13;0.57;;;17.50;55.10;;;;;;5102451;28;20057;-40
2021/12/21 08:39:38;;;;;;;0.70;0.60;;;17.50;55.20;;;;;;5104218;28;20036;-41
2021/12/21 08:42:06;;;;;;;0.60;0.57;;;17.40;55.20;;;;;;5108599;28;20039;-41
2021/12/21 08:44:31;;;;;;;;;;;17.40;55.30;;;;;;5124702;28;20069;-40
2021/12/21 08:46:58;;;;;;;0.80;0.50;;;17.50;55.30;;;;;;5123936;28;19907;-41
2021/12/21 08:49:25;;;;;;;0.60;0.40;;;17.60;55.40;;;;;;5123949;28;20063;-41
2021/12/21 08:51:51;;;;;;;0.50;0.40;;;17.50;55.20;;;;;;5124298;28;20034;-40
2021/12/21 08:54:17;;;;;;;0.65;0.57;;;17.60;55.10;;;;;;5124034;28;20038;-42
2021/12/21 08:56:44;;;;;;;0.50;0.50;;;17.50;55.10;;;;;;5123987;28;20027;-40
2021/12/21 08:59:12;;;;;;;1.00;0.70;;;17.40;55.20;;;;;;5123722;28;20055;-41
2021/12/21 09:01:38;;;;;;;0.80;0.60;;;17.40;55.20;;;;;;5123779;28;20039;-41
2021/12/21 09:04:04;;;;;;;0.50;0.47;;;17.40;55.30;;;;;;5123811;28;20031;-40
2021/12/21 09:06:30;;;;;;;1.02;0.40;;;17.50;55.30;;;;;;5123889;28;20027;-40
2021/12/21 09:08:56;;;;;;;0.57;0.47;;;17.50;55.30;;;;;;5108946;28;20181;-40
2021/12/21 09:11:23;;;;;;;0.75;0.50;;;17.60;55.30;;;;;;5123777;28;20105;-40
2021/12/21 09:13:49;;;;;;;1.15;0.60;;;17.50;55.10;;;;;;5123417;28;20746;-41
2021/12/21 09:16:15;;;;;;;0.63;0.40;;;17.50;55.10;;;;;;5123956;28;20038;-40
2021/12/21 09:18:41;;;;;;;0.90;0.70;;;17.50;55.20;;;;;;5123337;28;20027;-40
2021/12/21 09:21:07;;;;;;;0.50;0.50;;;17.40;55.20;;;;;;5106826;28;20039;-40
2021/12/21 09:23:33;;;;;;;1.08;0.60;;;17.40;55.20;;;;;;5103237;28;20682;-40
2021/12/21 09:25:59;;;;;;;0.45;0.45;;;17.40;55.30;;;;;;5111027;28;20058;-40
2021/12/21 09:28:25;;;;;;;0.40;0.40;;;17.60;55.40;;;;;;5123291;28;20050;-40
2021/12/21 09:30:51;;;;;;;0.50;0.50;;;17.60;55.30;;;;;;5123522;28;20053;-41
2021/12/21 09:33:18;;;;;;;0.90;0.70;;;17.60;55.20;;;;;;5123257;28;20050;-40
2021/12/21 09:35:45;;;;;;;0.60;0.60;;;17.60;55.10;;;;;;5123522;28;20091;-41
2021/12/21 09:38:11;;;;;;;0.57;0.52;;;17.50;55.20;;;;;;5114564;28;20038;-43
2021/12/21 09:40:40;;;;;;;0.70;0.40;;;17.40;55.20;;;;;;5102969;28;20035;-40
2021/12/21 09:43:10;;;;;;;0.55;0.47;;;17.40;55.30;;;;;;5116385;28;20034;-41
2021/12/21 09:45:37;;;;;;;1.17;0.55;;;17.50;55.30;;;;;;5122717;27;20431;-40
2021/12/21 09:48:03;;;;;;;0.60;0.50;;;17.50;55.20;;;;;;5123339;28;20039;-41
2021/12/21 09:50:29;;;;;;;0.70;0.50;;;17.60;55.20;;;;;;5122196;28;20563;-41
2021/12/21 09:52:56;;;;;;;0.60;0.50;;;17.60;55.00;;;;;;5123368;28;20384;-40
2021/12/21 09:55:22;;;;;;;0.50;0.50;;;17.60;54.90;;;;;;5122063;28;20126;-41
2021/12/21 09:57:49;;;;;;;0.63;0.50;;;17.60;55.00;;;;;;5122815;28;20023;-42
2021/12/21 10:00:29;;;;;;;0.90;0.52;;;17.40;55.00;;;;;;5122766;28;20031;-41
2021/12/21 10:03:04;;;;;;;0.65;0.60;;;17.40;55.00;;;;;;5122818;28;20067;-40
2021/12/21 10:05:33;;;;;;;0.60;0.50;;;17.40;55.10;;;;;;5123189;28;20036;-41
2021/12/21 10:08:00;;;;;;;0.65;0.65;;;17.50;55.10;;;;;;5121956;28;20119;-40
2021/12/21 10:10:28;;;;;;;1.05;0.52;;;17.60;55.10;;;;;;5122688;28;20063;-40
2021/12/21 10:12:54;;;;;;;0.85;0.50;;;17.60;55.00;;;;;;5121313;28;20851;-41
2021/12/21 10:15:23;;;;;;;0.70;0.55;;;17.50;54.70;;;;;;5122595;28;20027;-41
2021/12/21 10:17:57;;;;;;;0.80;0.68;;;17.50;54.80;;;;;;5122672;28;20069;-40
2021/12/21 10:20:38;;;;;;;0.82;0.40;;;17.40;54.80;;;;;;5112194;28;20064;-41
2021/12/21 10:23:28;;;;;;;0.80;0.55;;;17.40;54.80;;;;;;5102758;28;20040;-41
2021/12/21 10:26:00;;;;;;;0.47;0.47;;;17.30;54.90;;;;;;5094669;28;20032;-44
2021/12/21 10:28:35;;;;;;;0.70;0.60;;;17.50;55.00;;;;;;5102365;28;20032;-40
2021/12/21 10:31:03;;;;;;;0.50;0.50;;;17.50;54.90;;;;;;5102327;28;20054;-41
2021/12/21 10:33:30;;;;;;;0.52;0.52;;;17.60;54.90;;;;;;5101802;28;20077;-41
2021/12/21 10:35:57;;;;;;;0.65;0.57;;;17.60;54.70;;;;;;5102313;28;20028;-43
2021/12/21 10:38:33;;;;;;;0.68;0.43;;;17.60;54.60;;;;;;5102738;28;20036;-47
2021/12/21 10:41:09;;;;;;;0.80;0.57;;;17.50;54.60;;;;;;5102362;28;20051;-40
2021/12/21 10:43:35;;;;;;;0.57;0.47;;;17.50;54.70;;;;;;5119881;28;20023;-45
2021/12/21 10:46:01;;;;;;;0.50;0.43;;;17.40;54.80;;;;;;5122203;28;20027;-40
2021/12/21 10:48:29;;;;;;;0.98;0.70;;;17.40;54.90;;;;;;5122252;28;20048;-42
2021/12/21 10:50:56;;;;;;;2.08;0.60;;;17.50;54.90;;;;;;5107583;28;20032;-43
2021/12/21 10:53:25;;;;;;;0.85;0.60;;;17.50;54.90;;;;;;5102249;28;20091;-43
2021/12/21 10:56:00;;;;;;;2.42;0.55;;;17.60;54.70;;;;;;5101920;28;20101;-44
2021/12/21 10:58:27;;;;;;;0.70;0.40;;;17.60;54.70;;;;;;5103850;28;20028;-41
2021/12/21 11:00:59;;;;;;;0.50;0.50;;;17.50;54.70;;;;;;5106106;28;20077;-41
2021/12/21 11:03:50;;;;;;;0.70;0.50;;;17.40;54.70;;;;;;5120058;28;20045;-40
2021/12/21 11:06:18;;;;;;;0.50;0.40;;;17.40;54.80;;;;;;5126403;27;20034;-41
2021/12/21 11:08:48;;;;;;;0.60;0.60;;;17.40;54.90;;;;;;5113207;28;20636;-41
2021/12/21 11:11:29;;;;;;;0.90;0.60;;;17.50;54.80;;;;;;5106214;28;20127;-41
2021/12/21 11:14:15;;;;;;;0.65;0.50;;;17.50;54.80;;;;;;5107487;28;20031;-40
2021/12/21 11:16:42;;;;;;;0.70;0.60;;;17.60;54.70;;;;;;5126263;28;20020;-41
2021/12/21 11:19:09;;;;;;;0.70;0.55;;;17.50;54.60;;;;;;5126206;28;20113;-42
2021/12/21 11:21:35;;;;;;;;;;;17.50;54.70;;;;;;5106109;28;20067;-41
2021/12/21 11:24:04;;;;;;;0.57;0.55;;;17.40;54.70;;;;;;5104293;28;19943;-41
2021/12/21 11:26:31;;;;;;;0.75;0.57;;;17.40;54.80;;;;;;5110250;28;20027;-41
2021/12/21 11:28:57;;;;;;;0.90;0.60;;;17.50;54.80;;;;;;5125940;28;20050;-39
2021/12/21 11:31:23;;;;;;;0.80;0.65;;;17.60;54.80;;;;;;5124674;28;20031;-42
2021/12/21 11:33:56;;;;;;;0.70;0.70;;;17.60;54.80;;;;;;5125819;28;20039;-40
2021/12/21 11:39:07;;;;;;;1.10;0.57;;;17.50;54.50;;;;;;5124894;27;20038;-40
2021/12/21 11:41:33;;;;;;;0.80;0.63;;;17.50;54.50;;;;;;5125750;28;20039;-40
2021/12/21 11:44:20;;;;;;;0.53;0.50;;;17.40;54.60;;;;;;5125624;27;20768;-41
2021/12/21 11:46:54;;;;;;;0.75;0.50;;;17.40;54.70;;;;;;5124067;28;20271;-41
2021/12/21 11:49:43;;;;;;;0.98;0.77;;;17.50;54.70;;;;;;5125193;28;20056;-40
2021/12/21 11:52:13;;;;;;;0.50;0.50;;;17.50;54.60;;;;;;5125498;28;20028;-40
2021/12/21 11:54:45;;;;;;;0.47;0.47;;;17.60;54.40;;;;;;5125281;28;20085;-40
2021/12/21 11:57:11;;;;;;;0.85;0.63;;;17.50;54.30;;;;;;5123918;28;20020;-42
2021/12/21 11:59:37;;;;;;;0.63;0.50;;;17.50;54.40;;;;;;5125457;28;20056;-41
2021/12/21 12:02:04;;;;;;;0.70;0.52;;;17.40;54.40;;;;;;5125549;28;20802;-41
2021/12/21 12:04:33;;;;;;;0.70;0.60;;;17.40;54.60;;;;;;5125024;28;20027;-40
2021/12/21 12:06:59;;;;;;;0.88;0.60;;;17.50;54.60;;;;;;5125115;28;20035;-40
2021/12/21 12:09:30;;;;;;;0.95;0.60;;;17.50;54.50;;;;;;5124337;28;20459;-40
2021/12/21 12:12:11;;;;;;;1.88;0.63;;;17.60;54.60;;;;;;5125308;28;20062;-40
2021/12/21 12:14:38;;;;;;;1.65;0.52;;;17.50;54.30;;;;;;5124841;28;20059;-41
2021/12/21 12:17:11;;;;;;;0.53;0.50;;;17.50;54.30;;;;;;5123581;28;20031;-40
2021/12/21 12:19:44;;;;;;;0.80;0.60;;;17.50;54.30;;;;;;5120837;28;20031;-43
2021/12/21 12:22:13;;;;;;;1.20;0.68;;;17.40;54.30;;;;;;5104792;28;20051;-40
2021/12/21 12:24:56;;;;;;;0.60;0.50;;;17.40;54.50;;;;;;5104631;28;20028;-40
2021/12/21 12:27:26;;;;;;;0.52;0.52;;;17.50;54.50;;;;;;5104322;28;20032;-40
2021/12/21 12:29:58;;;;;;;0.93;0.60;;;17.50;54.40;;;;;;5104346;28;20168;-40
2021/12/21 12:33:01;;;;;;;1.02;0.90;;;17.60;54.20;;;;;;5104624;28;20111;-39
2021/12/21 12:35:29;;;;;;;1.95;0.50;;;17.60;54.10;;;;;;5084925;28;20598;-40
2021/12/21 12:37:57;;;;;;;0.70;0.70;;;17.50;54.10;;;;;;5110279;28;20047;-41
2021/12/21 12:40:29;;;;;;;0.63;0.55;;;17.40;54.20;;;;;;5124696;28;20091;-40
2021/12/21 12:42:57;;;;;;;0.98;0.70;;;17.40;54.30;;;;;;5124516;28;20032;-40
2021/12/21 12:45:23;;;;;;;0.73;0.60;;;17.50;54.40;;;;;;5122382;28;20023;-40
2021/12/21 12:47:54;;;;;;;0.80;0.50;;;17.60;54.30;;;;;;5124477;28;20122;-40
2021/12/21 12:50:31;;;;;;;0.80;0.50;;;17.50;54.20;;;;;;5114180;28;20039;-40
2021/12/21 12:52:59;;;;;;;0.60;0.60;;;17.60;54.00;;;;;;5123679;28;20026;-40
2021/12/21 12:55:38;;;;;;;0.80;0.70;;;17.50;54.00;;;;;;5123998;28;20035;-40
2021/12/21 12:58:11;;;;;;;0.98;0.55;;;17.50;54.10;;;;;;5124124;27;20031;-40
2021/12/21 13:00:37;;;;;;;0.75;0.60;;;17.40;54.00;;;;;;5123991;28;20039;-41
2021/12/21 13:03:08;;;;;;;0.90;0.80;;;17.30;54.20;;;;;;5124242;28;20051;-40
2021/12/21 13:05:39;;;;;;;0.88;0.60;;;17.40;54.20;;;;;;5123950;28;20035;-40
2021/12/21 13:08:16;;;;;;;0.60;0.55;;;17.50;54.20;;;;;;5116293;28;20615;-41
2021/12/21 13:10:44;;;;;;;0.63;0.50;;;17.50;54.20;;;;;;5103677;28;20020;-40
2021/12/21 13:13:10;;;;;;;0.63;0.55;;;17.60;54.10;;;;;;5118082;28;20062;-40
2021/12/21 13:15:38;;;;;;;0.55;0.50;;;17.60;54.00;;;;;;5123624;28;20019;-40
2021/12/21 13:18:06;;;;;;;0.60;0.60;;;17.50;54.00;;;;;;5124092;27;20020;-41
2021/12/21 13:20:33;;;;;;;1.13;0.50;;;17.40;54.00;;;;;;5111399;28;20052;-40
2021/12/21 13:23:12;;;;;;;1.08;0.80;;;17.40;54.10;;;;;;5103530;28;20073;-40
2021/12/21 13:25:39;;;;;;;0.63;0.60;;;17.40;54.20;;;;;;5103298;28;20028;-41
2021/12/21 13:28:12;;;;;;;0.77;0.60;;;17.50;54.20;;;;;;5115004;28;20064;-41
2021/12/21 13:30:46;;;;;;;1.15;0.60;;;17.60;54.10;;;;;;5123719;28;20058;-41
2021/12/21 13:33:21;;;;;;;1.10;0.65;;;17.50;54.50;;;;;;5123883;28;20039;-40
2021/12/21 13:35:48;;;;;;;0.73;0.55;;;17.60;53.90;;;;;;5123210;28;20053;-43
2021/12/21 13:38:15;;;;;;;0.65;0.65;;;17.50;53.90;;;;;;5114197;28;20040;-40
2021/12/21 13:40:41;;;;;;;0.63;0.60;;;17.40;53.90;;;;;;5103152;28;20028;-41
2021/12/21 13:43:12;;;;;;;0.93;0.80;;;17.40;54.00;;;;;;5117302;28;20032;-42
2021/12/21 13:45:39;;;;;;;0.57;0.57;;;17.40;54.20;;;;;;5123120;28;20080;-41
2021/12/21 13:48:05;;;;;;;0.60;0.57;;;17.50;54.20;;;;;;5123297;28;20042;-40
2021/12/21 13:50:31;;;;;;;0.75;0.63;;;17.60;54.10;;;;;;5111793;28;20039;-41
2021/12/21 13:52:58;;;;;;;0.70;0.60;;;17.60;54.00;;;;;;5115578;28;20135;-40